Time;durP1;ratioP1;P1;durP2;ratioP2;P2;SDS_P1;SDS_P2;PMS_P1;PMS_P2;Temp;Humidity;BMP_temperature;BMP_pressure;BME280_temperature;BME280_humidity;BME280_pressure;Samples;Min_cycle;Max_cycle;Signal;HPM_P1;HPM_P2
2023/11/19 00:00:46;;;;;;;;;;;;;;;5.51;65.54;99185.59;4994536;28;20020;-73
2023/11/19 00:03:13;;;;;;;;;;;;;;;5.54;65.96;99203.56;4994337;28;19935;-73
2023/11/19 00:05:38;;;;;;;;;;;;;;;5.56;65.58;99224.31;4994497;28;19914;-74
2023/11/19 00:08:04;;;;;;;;;;;;;;;5.47;66.34;99215.88;4990542;28;19924;-73
2023/11/19 00:10:30;;;;;;;;;;;;;;;5.51;66.53;99213.34;4992890;28;19933;-73
2023/11/19 00:12:56;;;;;;;;;;;;;;;5.51;66.79;99206.94;4994158;28;20385;-73
2023/11/19 00:15:24;;;;;;;;;;;;;;;5.53;66.85;99207.47;4994300;28;19921;-72
2023/11/19 00:17:49;;;;;;;;;;;;;;;5.50;67.41;99220.00;4994023;28;19923;-74
2023/11/19 00:20:15;;;;;;;;;;;;;;;5.48;67.41;99228.63;4993158;28;20304;-73
2023/11/19 00:22:42;;;;;;;;;;;;;;;5.49;66.98;99223.91;4984193;28;19918;-73
2023/11/19 00:25:08;;;;;;;;;;;;;;;5.48;67.34;99217.53;4993768;28;20359;-73
2023/11/19 00:27:33;;;;;;;;;;;;;;;5.45;67.94;99218.16;4992182;28;20008;-73
2023/11/19 00:29:58;;;;;;;;;;;;;;;5.45;68.31;99211.78;4992593;28;19918;-73
2023/11/19 00:32:24;;;;;;;;;;;;;;;5.44;67.74;99222.06;4993840;28;19956;-73
2023/11/19 00:34:49;;;;;;;;;;;;;;;5.46;67.86;99227.28;4992589;28;20004;-73
2023/11/19 00:37:17;;;;;;;;;;;;;;;5.43;68.30;99222.34;4992821;28;20423;-73
2023/11/19 00:39:43;;;;;;;;;;;;;;;5.45;68.11;99234.81;4981481;28;20359;-73
2023/11/19 00:42:10;;;;;;;;;;;;;;;5.36;69.12;99238.56;4990709;28;19918;-73
2023/11/19 00:44:35;;;;;;;;;;;;;;;5.41;67.97;99242.06;4992195;28;19922;-73
2023/11/19 00:47:00;;;;;;;;;;;;;;;5.45;67.96;99240.34;4993219;28;19925;-74
2023/11/19 00:49:26;;;;;;;;;;;;;;;5.51;67.13;99252.16;4992183;28;19925;-73
2023/11/19 00:51:51;;;;;;;;;;;;;;;5.42;68.42;99254.81;4993501;28;19960;-73
2023/11/19 00:54:16;;;;;;;;;;;;;;;5.41;68.31;99238.50;4992607;28;19976;-73
2023/11/19 00:56:42;;;;;;;;;;;;;;;5.44;67.83;99235.94;4983963;28;19949;-74
2023/11/19 00:59:07;;;;;;;;;;;;;;;5.38;68.65;99239.91;4993384;28;19917;-73
2023/11/19 01:01:33;;;;;;;;;;;;;;;5.48;67.35;99250.81;4992740;28;19914;-73
2023/11/19 01:03:59;;;;;;;;;;;;;;;5.48;67.43;99255.53;4991665;28;19983;-73
2023/11/19 01:06:28;;;;;;;;;;;;;;;5.43;68.25;99247.31;4993292;28;19927;-73
2023/11/19 01:08:53;;;;;;;;;;;;;;;5.41;68.50;99244.03;4990921;28;19922;-73
2023/11/19 01:11:20;;;;;;;;;;;;;;;5.38;68.58;99239.09;4991877;28;19918;-74
2023/11/19 01:13:46;;;;;;;;;;;;;;;5.36;68.75;99235.78;4984020;28;20352;-74
2023/11/19 01:16:12;;;;;;;;;;;;;;;5.39;68.17;99241.56;4973631;28;19960;-74
2023/11/19 01:18:38;;;;;;;;;;;;;;;5.39;68.31;99255.44;4973541;28;19914;-73
2023/11/19 01:21:03;;;;;;;;;;;;;;;5.34;68.81;99255.53;4974724;28;20424;-73
2023/11/19 01:23:28;;;;;;;;;;;;;;;5.36;68.85;99257.97;4992733;28;19918;-73
2023/11/19 01:25:54;;;;;;;;;;;;;;;5.40;67.98;99253.50;4992712;28;19921;-72
2023/11/19 01:28:19;;;;;;;;;;;;;;;5.37;68.78;99257.69;4991395;28;19976;-73
2023/11/19 01:30:44;;;;;;;;;;;;;;;5.37;68.83;99266.00;4979537;28;19937;-73
2023/11/19 01:33:09;;;;;;;;;;;;;;;5.34;68.83;99256.34;4973327;28;19918;-72
2023/11/19 01:35:35;;;;;;;;;;;;;;;5.39;68.47;99252.66;4979756;28;19918;-73
2023/11/19 01:38:00;;;;;;;;;;;;;;;5.35;68.21;99254.41;4991358;28;19928;-74
2023/11/19 01:40:25;;;;;;;;;;;;;;;5.30;69.69;99266.41;4987334;28;19921;-73
2023/11/19 01:42:51;;;;;;;;;;;;;;;5.31;69.69;99261.69;4973126;28;19941;-73
2023/11/19 01:45:27;;;;;;;;;;;;;;;5.30;69.67;99260.03;4976242;28;19930;-74
2023/11/19 01:47:53;;;;;;;;;;;;;;;5.30;70.15;99262.81;4987281;28;19972;-73
2023/11/19 01:50:19;;;;;;;;;;;;;;;5.21;70.51;99259.91;4977851;28;20297;-73
2023/11/19 01:52:45;;;;;;;;;;;;;;;5.22;70.76;99260.75;4991248;28;20368;-73
2023/11/19 01:55:11;;;;;;;;;;;;;;;5.18;70.87;99264.09;4973201;28;20000;-73
2023/11/19 01:57:41;;;;;;;;;;;;;;;5.17;71.58;99264.44;4986341;28;19921;-73
2023/11/19 02:00:07;;;;;;;;;;;;;;;5.15;70.98;99263.91;4973086;28;19914;-73
2023/11/19 02:02:32;;;;;;;;;;;;;;;5.17;70.71;99259.69;4973050;28;19918;-72
2023/11/19 02:04:57;;;;;;;;;;;;;;;5.22;70.71;99264.31;4981392;28;19917;-73
2023/11/19 02:07:24;;;;;;;;;;;;;;;5.23;69.78;99263.19;4992397;28;19925;-73
2023/11/19 02:09:49;;;;;;;;;;;;;;;5.19;70.63;99253.84;4992297;28;19982;-73
2023/11/19 02:12:15;;;;;;;;;;;;;;;5.12;72.04;99259.78;4992321;28;19954;-73
2023/11/19 02:14:40;;;;;;;;;;;;;;;5.11;71.05;99255.38;4994174;28;19944;-74
2023/11/19 02:17:05;;;;;;;;;;;;;;;5.12;70.98;99264.50;4994760;28;19914;-73
2023/11/19 02:19:30;;;;;;;;;;;;;;;5.09;71.50;99274.28;4987712;28;19918;-73
2023/11/19 02:21:56;;;;;;;;;;;;;;;5.06;72.17;99283.16;4995020;28;19924;-73
2023/11/19 02:24:26;;;;;;;;;;;;;;;5.08;71.58;99286.50;4994915;28;19968;-73
2023/11/19 02:26:57;;;;;;;;;;;;;;;5.09;71.60;99284.53;4995292;28;19957;-73
2023/11/19 02:29:23;;;;;;;;;;;;;;;5.04;72.21;99290.97;4995995;28;19922;-73
2023/11/19 02:31:48;;;;;;;;;;;;;;;5.05;72.01;99285.13;4996147;28;19972;-73
2023/11/19 02:34:13;;;;;;;;;;;;;;;5.08;71.54;99289.25;4995123;28;20344;-73
2023/11/19 02:36:41;;;;;;;;;;;;;;;5.02;71.62;99304.31;4994987;28;19964;-73
2023/11/19 02:39:10;;;;;;;;;;;;;;;5.01;72.00;99305.44;4994658;28;19913;-73
2023/11/19 02:41:35;;;;;;;;;;;;;;;5.00;72.45;99298.25;4995956;28;19914;-73
2023/11/19 02:44:00;;;;;;;;;;;;;;;4.99;72.17;99288.28;4995608;28;19920;-73
2023/11/19 02:46:26;;;;;;;;;;;;;;;5.02;71.65;99293.22;4995896;28;20400;-73
2023/11/19 02:48:51;;;;;;;;;;;;;;;5.06;71.01;99306.19;4992692;28;20324;-73
2023/11/19 02:51:18;;;;;;;;;;;;;;;5.03;72.36;99292.94;4990940;28;19926;-73
2023/11/19 02:53:44;;;;;;;;;;;;;;;5.01;72.56;99297.13;4976053;28;20389;-73
2023/11/19 02:56:15;;;;;;;;;;;;;;;5.00;71.69;99296.28;4978607;28;19921;-72
2023/11/19 02:58:42;;;;;;;;;;;;;;;5.00;72.15;99295.47;4995301;28;20456;-73
2023/11/19 03:01:19;;;;;;;;;;;;;;;5.00;71.11;99299.06;4995822;28;19918;-72
2023/11/19 03:03:53;;;;;;;;;;;;;;;5.07;70.60;99290.38;4993389;28;19922;-73
2023/11/19 03:06:19;;;;;;;;;;;;;;;5.00;72.26;99298.25;4995518;28;20308;-72
2023/11/19 03:08:44;;;;;;;;;;;;;;;4.96;71.75;99295.25;4995347;28;19937;-73
2023/11/19 03:11:09;;;;;;;;;;;;;;;4.96;71.70;99305.53;4993565;28;19925;-73
2023/11/19 03:13:34;;;;;;;;;;;;;;;5.00;71.53;99304.59;4995285;28;20042;-72
2023/11/19 03:16:00;;;;;;;;;;;;;;;5.00;71.53;99309.34;4995257;28;20301;-73
2023/11/19 03:18:25;;;;;;;;;;;;;;;4.98;72.26;99319.91;4993174;28;19922;-73
2023/11/19 03:20:50;;;;;;;;;;;;;;;5.02;71.37;99329.28;4995158;28;19997;-73
2023/11/19 03:23:16;;;;;;;;;;;;;;;5.04;70.68;99335.34;4993637;28;19957;-73
2023/11/19 03:25:41;;;;;;;;;;;;;;;5.00;71.18;99337.88;4994228;28;19914;-73
2023/11/19 03:28:06;;;;;;;;;;;;;;;5.01;70.77;99335.94;4989610;28;19950;-73
2023/11/19 03:30:32;;;;;;;;;;;;;;;5.01;70.57;99339.56;4975484;28;19919;-73
2023/11/19 03:32:58;;;;;;;;;;;;;;;4.98;70.27;99326.28;4991273;28;19949;-73
2023/11/19 03:35:23;;;;;;;;;;;;;;;5.03;69.58;99334.53;4993098;28;19917;-73
2023/11/19 03:37:49;;;;;;;;;;;;;;;5.01;70.71;99336.78;4993542;28;19936;-73
2023/11/19 03:40:14;;;;;;;;;;;;;;;5.04;69.93;99340.88;4994826;28;19914;-73
2023/11/19 03:42:40;;;;;;;;;;;;;;;5.04;70.22;99343.66;4993455;28;19914;-73
2023/11/19 03:45:08;;;;;;;;;;;;;;;4.99;70.08;99346.50;4983852;28;19922;-73
2023/11/19 03:47:33;;;;;;;;;;;;;;;4.96;70.75;99347.94;4999655;28;19962;-73
2023/11/19 03:49:58;;;;;;;;;;;;;;;4.98;70.22;99344.88;4975146;28;20386;-73
2023/11/19 03:52:24;;;;;;;;;;;;;;;4.98;70.20;99344.88;4990246;28;20309;-73
2023/11/19 03:54:49;;;;;;;;;;;;;;;4.91;69.59;99348.81;4989045;28;19957;-73
2023/11/19 03:57:15;;;;;;;;;;;;;;;4.91;69.90;99351.59;4994301;28;19921;-73
2023/11/19 03:59:41;;;;;;;;;;;;;;;4.83;70.33;99357.84;4992919;28;19991;-73
2023/11/19 04:02:06;;;;;;;;;;;;;;;4.81;70.86;99357.28;4978310;28;19926;-73
2023/11/19 04:04:31;;;;;;;;;;;;;;;4.82;71.43;99356.16;4992632;28;19963;-73
2023/11/19 04:06:57;;;;;;;;;;;;;;;4.82;72.13;99366.44;4992823;28;19929;-73
2023/11/19 04:09:23;;;;;;;;;;;;;;;4.80;72.31;99366.72;4993793;28;19921;-73
2023/11/19 04:11:48;;;;;;;;;;;;;;;4.82;72.13;99367.25;4992969;28;20468;-74
2023/11/19 04:14:14;;;;;;;;;;;;;;;4.88;71.56;99360.53;4993026;28;20056;-73
2023/11/19 04:16:40;;;;;;;;;;;;;;;4.92;71.22;99369.88;4992850;28;19914;-73
2023/11/19 04:19:06;;;;;;;;;;;;;;;4.83;71.35;99380.00;4991246;28;19925;-72
2023/11/19 04:21:31;;;;;;;;;;;;;;;4.76;71.00;99379.53;4992787;28;20439;-73
2023/11/19 04:23:56;;;;;;;;;;;;;;;4.78;71.41;99372.59;4993852;28;20002;-73
2023/11/19 04:26:22;;;;;;;;;;;;;;;4.59;71.25;99369.78;4991682;28;20020;-73
2023/11/19 04:28:49;;;;;;;;;;;;;;;4.61;71.29;99377.78;4992601;28;19918;-73
2023/11/19 04:31:15;;;;;;;;;;;;;;;4.54;71.92;99378.16;4992632;28;20333;-73
2023/11/19 04:33:41;;;;;;;;;;;;;;;4.53;71.77;99376.50;4983836;28;19982;-73
2023/11/19 04:36:07;;;;;;;;;;;;;;;4.55;70.81;99379.81;4986416;28;19922;-73
2023/11/19 04:38:32;;;;;;;;;;;;;;;4.54;71.52;99385.66;4992512;28;19913;-73
2023/11/19 04:40:57;;;;;;;;;;;;;;;4.41;71.69;99384.44;4993692;28;20004;-73
2023/11/19 04:43:23;;;;;;;;;;;;;;;4.28;73.08;99388.72;4993694;28;19917;-73
2023/11/19 04:45:48;;;;;;;;;;;;;;;4.25;72.69;99376.31;4992162;28;19922;-73
2023/11/19 04:48:13;;;;;;;;;;;;;;;4.28;72.17;99372.09;4992403;28;20409;-73
2023/11/19 04:50:39;;;;;;;;;;;;;;;4.33;72.62;99372.88;4992336;28;20012;-72
2023/11/19 04:53:04;;;;;;;;;;;;;;;4.21;72.63;99372.47;4992289;28;19920;-73
2023/11/19 04:55:29;;;;;;;;;;;;;;;4.28;71.86;99367.41;4993374;28;19914;-73
2023/11/19 04:57:55;;;;;;;;;;;;;;;4.35;70.87;99376.19;4993037;28;20381;-73
2023/11/19 05:00:21;;;;;;;;;;;;;;;4.33;70.85;99377.59;4991790;28;20016;-73
2023/11/19 05:02:46;;;;;;;;;;;;;;;4.34;71.55;99373.72;4991352;28;19925;-74
2023/11/19 05:05:12;;;;;;;;;;;;;;;4.30;71.17;99367.94;4993197;28;19913;-73
2023/11/19 05:07:37;;;;;;;;;;;;;;;4.24;71.13;99384.91;4984962;28;19981;-73
2023/11/19 05:10:04;;;;;;;;;;;;;;;4.24;71.11;99380.19;4973827;28;19961;-75
2023/11/19 05:12:29;;;;;;;;;;;;;;;4.19;72.25;99386.63;4988502;28;19964;-73
2023/11/19 05:14:55;;;;;;;;;;;;;;;4.17;71.99;99390.78;4993299;28;19918;-73
2023/11/19 05:17:20;;;;;;;;;;;;;;;4.14;71.99;99400.50;4992002;28;19914;-73
2023/11/19 05:19:46;;;;;;;;;;;;;;;4.18;71.56;99384.13;4993091;28;20404;-73
2023/11/19 05:22:12;;;;;;;;;;;;;;;4.21;71.53;99386.31;4991943;28;19921;-75
2023/11/19 05:24:37;;;;;;;;;;;;;;;4.23;71.39;99397.94;4992733;28;19979;-73
2023/11/19 05:27:02;;;;;;;;;;;;;;;4.18;72.17;99403.50;4992695;28;20340;-73
2023/11/19 05:29:28;;;;;;;;;;;;;;;4.20;71.75;99415.13;4991516;28;20348;-72
2023/11/19 05:31:55;;;;;;;;;;;;;;;4.10;72.53;99407.75;4991824;28;19914;-72
2023/11/19 05:34:21;;;;;;;;;;;;;;;4.13;72.63;99409.13;4992798;28;20404;-73
2023/11/19 05:36:46;;;;;;;;;;;;;;;4.15;72.95;99412.41;4990992;28;19914;-73
2023/11/19 05:39:11;;;;;;;;;;;;;;;4.13;72.28;99417.44;4973715;28;20368;-73
2023/11/19 05:41:37;;;;;;;;;;;;;;;4.09;72.61;99411.66;4973220;28;20289;-72
2023/11/19 05:44:02;;;;;;;;;;;;;;;4.12;72.20;99421.31;4972578;28;19969;-73
2023/11/19 05:46:27;;;;;;;;;;;;;;;4.14;73.02;99425.41;4976774;28;19922;-73
2023/11/19 05:48:53;;;;;;;;;;;;;;;4.24;72.22;99430.03;4990416;28;19921;-73
2023/11/19 05:51:18;;;;;;;;;;;;;;;4.30;71.59;99423.31;4992490;28;19918;-73
2023/11/19 05:53:45;;;;;;;;;;;;;;;4.42;70.80;99419.31;4991757;28;19914;-73
2023/11/19 05:56:11;;;;;;;;;;;;;;;4.46;70.67;99431.44;4979181;28;20319;-73
2023/11/19 05:58:37;;;;;;;;;;;;;;;4.48;71.17;99418.13;4992228;28;20001;-73
2023/11/19 06:01:03;;;;;;;;;;;;;;;4.54;70.98;99416.94;4991475;28;19918;-73
2023/11/19 06:03:29;;;;;;;;;;;;;;;4.52;70.78;99421.97;4989611;28;20008;-73
2023/11/19 06:05:54;;;;;;;;;;;;;;;4.50;71.45;99425.00;4990136;28;20415;-73
2023/11/19 06:08:20;;;;;;;;;;;;;;;4.54;71.63;99429.97;4991401;28;19949;-73
2023/11/19 06:10:46;;;;;;;;;;;;;;;4.53;71.28;99431.09;4986413;28;20385;-73
2023/11/19 06:13:12;;;;;;;;;;;;;;;4.54;71.37;99425.25;4987424;28;19917;-73
2023/11/19 06:15:37;;;;;;;;;;;;;;;4.60;71.25;99429.63;4989456;28;19918;-73
2023/11/19 06:18:03;;;;;;;;;;;;;;;4.60;71.36;99435.16;4989436;28;19953;-73
2023/11/19 06:20:32;;;;;;;;;;;;;;;4.62;71.82;99445.94;4990920;28;20340;-73
2023/11/19 06:22:58;;;;;;;;;;;;;;;4.66;69.82;99432.31;4992137;28;20339;-72
2023/11/19 06:25:26;;;;;;;;;;;;;;;4.66;70.55;99432.31;4987121;28;19954;-73
2023/11/19 06:27:52;;;;;;;;;;;;;;;4.63;70.69;99442.03;4988786;28;19940;-73
2023/11/19 06:30:17;;;;;;;;;;;;;;;4.66;70.79;99446.16;4988826;28;20025;-73
2023/11/19 06:32:42;;;;;;;;;;;;;;;4.68;70.61;99441.16;4990582;28;19918;-73
2023/11/19 06:35:08;;;;;;;;;;;;;;;4.70;70.64;99458.31;4989499;28;19914;-73
2023/11/19 06:37:33;;;;;;;;;;;;;;;4.75;70.30;99461.03;4990411;28;19924;-73
2023/11/19 06:39:59;;;;;;;;;;;;;;;4.77;71.58;99473.47;4992070;28;20403;-73
2023/11/19 06:42:24;;;;;;;;;;;;;;;4.80;70.51;99469.25;4991299;28;19918;-72
2023/11/19 06:44:49;;;;;;;;;;;;;;;4.89;70.30;99481.34;4990809;28;20316;-73
2023/11/19 06:47:15;;;;;;;;;;;;;;;4.99;69.69;99463.75;4987091;28;19934;-73
2023/11/19 06:49:40;;;;;;;;;;;;;;;5.24;68.31;99455.38;4989785;28;19924;-73
2023/11/19 06:52:05;;;;;;;;;;;;;;;5.42;67.94;99457.31;4991754;28;19917;-73
2023/11/19 06:54:31;;;;;;;;;;;;;;;5.54;66.40;99445.78;4989114;28;20345;-73
2023/11/19 06:56:57;;;;;;;;;;;;;;;5.67;66.63;99444.19;4982637;28;19918;-73
2023/11/19 06:59:22;;;;;;;;;;;;;;;5.79;65.80;99457.59;4987119;28;19941;-73
2023/11/19 07:01:48;;;;;;;;;;;;;;;5.85;65.21;99458.31;4990053;28;19917;-72
2023/11/19 07:04:13;;;;;;;;;;;;;;;5.93;64.62;99454.03;4995185;28;19921;-73
2023/11/19 07:06:42;;;;;;;;;;;;;;;5.99;63.37;99450.84;4994673;28;19914;-73
2023/11/19 07:09:10;;;;;;;;;;;;;;;6.02;64.11;99444.72;4993889;28;19925;-72
2023/11/19 07:11:39;;;;;;;;;;;;;;;5.89;62.92;99453.81;4994515;28;20013;-72
2023/11/19 07:14:04;;;;;;;;;;;;;;;5.85;63.77;99452.78;4995301;28;19941;-72
2023/11/19 07:16:30;;;;;;;;;;;;;;;5.97;62.33;99457.81;4990274;28;19914;-73
2023/11/19 07:18:55;;;;;;;;;;;;;;;6.01;62.25;99440.28;4975678;28;19928;-72
2023/11/19 07:21:21;;;;;;;;;;;;;;;6.14;61.46;99443.41;4978062;28;20324;-71
2023/11/19 07:23:46;;;;;;;;;;;;;;;6.13;61.54;99439.81;4995164;28;20096;-72
2023/11/19 07:26:12;;;;;;;;;;;;;;;6.21;61.86;99451.31;4993053;28;19914;-72
2023/11/19 07:28:37;;;;;;;;;;;;;;;6.34;62.50;99436.66;4990946;28;19980;-71
2023/11/19 07:31:03;;;;;;;;;;;;;;;6.32;60.74;99447.22;4994908;28;19937;-72
2023/11/19 07:33:29;;;;;;;;;;;;;;;6.38;60.90;99448.78;4992850;28;20028;-72
2023/11/19 07:35:54;;;;;;;;;;;;;;;6.44;60.94;99458.66;4993848;28;20301;-71
2023/11/19 07:38:20;;;;;;;;;;;;;;;6.47;60.04;99471.13;4991798;28;20005;-69
2023/11/19 07:40:45;;;;;;;;;;;;;;;6.54;60.49;99473.50;4991574;28;20257;-72
2023/11/19 07:43:10;;;;;;;;;;;;;;;6.59;59.71;99474.22;4989906;28;20024;-72
2023/11/19 07:45:36;;;;;;;;;;;;;;;6.59;59.06;99468.66;4989673;28;20400;-71
2023/11/19 07:48:01;;;;;;;;;;;;;;;6.73;59.09;99465.06;4992119;28;19956;-70
2023/11/19 07:50:27;;;;;;;;;;;;;;;6.61;58.77;99473.91;4989951;28;19933;-71
2023/11/19 07:52:52;;;;;;;;;;;;;;;6.59;58.55;99456.72;4992721;28;19918;-68
2023/11/19 07:55:18;;;;;;;;;;;;;;;6.66;58.39;99475.78;4991019;28;20676;-70
2023/11/19 07:57:43;;;;;;;;;;;;;;;6.77;58.55;99476.38;4994563;28;19914;-70
2023/11/19 08:00:12;;;;;;;;;;;;;;;6.83;58.94;99483.50;4993276;28;19921;-70
2023/11/19 08:02:37;;;;;;;;;;;;;;;6.87;58.51;99476.97;4993314;28;19918;-70
2023/11/19 08:05:03;;;;;;;;;;;;;;;6.93;58.14;99499.13;4990823;28;19940;-70
2023/11/19 08:07:28;;;;;;;;;;;;;;;6.86;57.70;99482.88;4987662;28;20439;-70
2023/11/19 08:09:53;;;;;;;;;;;;;;;6.92;57.68;99491.94;4992968;28;19918;-71
2023/11/19 08:12:19;;;;;;;;;;;;;;;7.02;57.48;99473.06;4993986;28;19936;-71
2023/11/19 08:14:44;;;;;;;;;;;;;;;6.93;57.16;99499.94;4992894;28;19976;-70
2023/11/19 08:17:09;;;;;;;;;;;;;;;6.92;57.15;99498.31;4994204;28;20388;-70
2023/11/19 08:19:35;;;;;;;;;;;;;;;6.84;57.65;99510.16;4992804;28;19913;-70
2023/11/19 08:22:00;;;;;;;;;;;;;;;6.79;57.28;99485.22;4992273;28;19917;-71
2023/11/19 08:24:25;;;;;;;;;;;;;;;6.82;57.73;99496.56;4993399;28;19913;-72
2023/11/19 08:26:51;;;;;;;;;;;;;;;7.05;57.77;99493.88;4977820;28;19918;-72
2023/11/19 08:29:16;;;;;;;;;;;;;;;7.06;56.79;99512.22;4974372;28;19972;-70
2023/11/19 08:31:42;;;;;;;;;;;;;;;7.07;57.12;99508.28;4974520;28;19914;-71
2023/11/19 08:34:10;;;;;;;;;;;;;;;7.05;57.45;99504.16;4974420;28;19980;-72
2023/11/19 08:36:37;;;;;;;;;;;;;;;7.11;56.99;99509.31;4988887;28;20473;-71
2023/11/19 08:39:03;;;;;;;;;;;;;;;7.16;57.14;99516.72;4974153;28;19941;-71
2023/11/19 08:41:28;;;;;;;;;;;;;;;7.19;56.73;99515.28;4991820;28;19961;-71
2023/11/19 08:43:53;;;;;;;;;;;;;;;7.16;56.18;99509.22;4993286;28;19960;-71
2023/11/19 08:46:19;;;;;;;;;;;;;;;7.20;56.50;99516.94;4993498;28;19980;-71
2023/11/19 08:48:44;;;;;;;;;;;;;;;7.23;56.49;99533.84;4993471;28;20313;-72
2023/11/19 08:51:09;;;;;;;;;;;;;;;7.21;55.64;99529.69;4992292;28;19920;-71
2023/11/19 08:53:35;;;;;;;;;;;;;;;7.38;56.76;99524.34;4990962;28;20376;-71
2023/11/19 08:56:02;;;;;;;;;;;;;;;7.63;56.81;99510.97;4974191;28;19957;-71
2023/11/19 08:58:27;;;;;;;;;;;;;;;7.72;55.29;99516.59;4991585;28;19922;-71
2023/11/19 09:00:53;;;;;;;;;;;;;;;7.67;56.41;99511.97;4993406;28;20367;-70
2023/11/19 09:03:18;;;;;;;;;;;;;;;7.65;56.35;99510.63;4992067;28;20336;-70
2023/11/19 09:05:44;;;;;;;;;;;;;;;7.69;55.89;99518.03;4993258;28;20428;-71
2023/11/19 09:08:11;;;;;;;;;;;;;;;7.76;55.22;99527.94;4993324;28;20343;-71
2023/11/19 09:10:36;;;;;;;;;;;;;;;7.75;55.36;99515.16;4991953;28;19957;-71
2023/11/19 09:13:04;;;;;;;;;;;;;;;7.78;54.87;99520.09;4973666;28;19918;-70
2023/11/19 09:15:29;;;;;;;;;;;;;;;7.99;54.95;99510.09;4986265;28;20407;-71
2023/11/19 09:17:55;;;;;;;;;;;;;;;7.82;54.20;99516.38;4993025;28;19914;-71
2023/11/19 09:20:20;;;;;;;;;;;;;;;7.94;54.42;99506.63;4992984;28;19914;-71
2023/11/19 09:22:46;;;;;;;;;;;;;;;7.67;53.72;99502.81;4992319;28;19914;-71
2023/11/19 09:25:11;;;;;;;;;;;;;;;7.77;54.24;99515.66;4992856;28;19921;-71
2023/11/19 09:27:37;;;;;;;;;;;;;;;7.73;54.00;99487.63;4989939;28;19945;-71
2023/11/19 09:30:05;;;;;;;;;;;;;;;7.81;54.27;99491.59;4988280;28;19984;-71
2023/11/19 09:32:30;;;;;;;;;;;;;;;7.79;53.83;99480.81;4973704;28;19914;-71
2023/11/19 09:34:56;;;;;;;;;;;;;;;7.61;53.73;99479.84;4988298;28;19914;-71
2023/11/19 09:37:21;;;;;;;;;;;;;;;7.86;52.98;99477.56;4973386;28;20368;-70
2023/11/19 09:39:46;;;;;;;;;;;;;;;7.69;52.93;99467.94;4973224;28;19964;-72
2023/11/19 09:42:12;;;;;;;;;;;;;;;7.85;52.92;99487.88;4988221;28;19914;-70
2023/11/19 09:44:39;;;;;;;;;;;;;;;7.91;52.90;99496.13;4985648;28;20012;-71
2023/11/19 09:47:05;;;;;;;;;;;;;;;8.11;53.62;99492.00;4991287;28;19968;-72
2023/11/19 09:49:30;;;;;;;;;;;;;;;8.14;52.61;99492.19;4991852;28;19925;-70
2023/11/19 09:51:56;;;;;;;;;;;;;;;7.96;51.97;99487.63;4992503;28;20000;-72
2023/11/19 09:54:21;;;;;;;;;;;;;;;7.88;52.51;99492.00;4988758;28;20360;-71
2023/11/19 09:56:47;;;;;;;;;;;;;;;8.06;52.16;99484.59;4991629;28;20572;-68
2023/11/19 09:59:13;;;;;;;;;;;;;;;8.18;51.91;99491.53;4997874;28;19941;-69
2023/11/19 10:01:38;;;;;;;;;;;;;;;8.03;51.97;99498.31;4978582;28;19914;-69
2023/11/19 10:04:04;;;;;;;;;;;;;;;8.13;51.76;99493.28;4991146;28;20412;-69
2023/11/19 10:06:30;;;;;;;;;;;;;;;8.13;51.92;99495.28;4988307;28;19914;-69
2023/11/19 10:08:55;;;;;;;;;;;;;;;8.25;52.10;99497.47;4991000;28;20012;-70
2023/11/19 10:11:20;;;;;;;;;;;;;;;8.15;51.79;99498.56;4990902;28;19965;-70
2023/11/19 10:13:47;;;;;;;;;;;;;;;8.08;50.96;99506.53;4989856;28;20025;-68
2023/11/19 10:16:13;;;;;;;;;;;;;;;8.15;52.18;99523.63;4986818;28;19914;-68
2023/11/19 10:18:50;;;;;;;;;;;;;;;8.05;51.55;99501.59;4977656;28;19948;-68
2023/11/19 10:21:17;;;;;;;;;;;;;;;8.24;52.30;99505.03;4991214;28;19918;-68
2023/11/19 10:23:57;;;;;;;;;;;;;;;7.94;51.15;99501.84;4989665;28;19917;-69
2023/11/19 10:26:23;;;;;;;;;;;;;;;8.15;52.05;99490.19;4990863;28;20317;-72
2023/11/19 10:28:48;;;;;;;;;;;;;;;8.05;51.78;99488.50;4990296;28;19948;-74
2023/11/19 10:31:14;;;;;;;;;;;;;;;8.24;51.90;99487.47;4990848;28;19918;-72
2023/11/19 10:33:39;;;;;;;;;;;;;;;8.20;51.30;99481.69;4986312;28;19936;-72
2023/11/19 10:36:05;;;;;;;;;;;;;;;8.26;51.42;99476.81;4992616;28;19922;-72
2023/11/19 10:38:30;;;;;;;;;;;;;;;8.15;51.73;99484.63;5005174;28;19926;-71
2023/11/19 10:40:55;;;;;;;;;;;;;;;8.35;51.59;99469.34;4986899;28;19925;-69
2023/11/19 10:43:22;;;;;;;;;;;;;;;8.21;50.32;99482.53;4989446;28;19929;-68
2023/11/19 10:45:48;;;;;;;;;;;;;;;8.05;51.29;99474.59;4987823;28;20012;-70
2023/11/19 10:48:13;;;;;;;;;;;;;;;8.42;50.61;99466.09;4989876;28;20021;-73
2023/11/19 10:50:40;;;;;;;;;;;;;;;8.09;50.60;99474.78;4992573;28;20359;-77
2023/11/19 10:53:05;;;;;;;;;;;;;;;7.95;51.39;99475.66;4993722;28;19921;-73
2023/11/19 10:55:40;;;;;;;;;;;;;;;8.38;51.72;99477.03;4991721;28;19914;-74
2023/11/19 10:58:07;;;;;;;;;;;;;;;8.43;50.16;99470.50;4985751;28;19925;-74
2023/11/19 11:00:46;;;;;;;;;;;;;;;8.29;50.10;99476.19;4990782;28;19914;-74
2023/11/19 11:03:16;;;;;;;;;;;;;;;8.30;50.51;99466.69;4989310;28;20723;-74
2023/11/19 11:05:41;;;;;;;;;;;;;;;8.20;50.15;99472.53;4981888;28;19917;-74
2023/11/19 11:08:07;;;;;;;;;;;;;;;8.24;51.43;99477.16;4994201;28;19917;-73
2023/11/19 11:10:36;;;;;;;;;;;;;;;8.40;50.55;99472.00;4994166;28;19918;-73
2023/11/19 11:13:03;;;;;;;;;;;;;;;8.61;51.17;99465.06;4985627;28;20008;-74
2023/11/19 11:15:30;;;;;;;;;;;;;;;8.54;50.47;99452.38;4989532;28;20418;-74
2023/11/19 11:18:00;;;;;;;;;;;;;;;8.36;50.58;99453.44;4991376;28;19925;-73
2023/11/19 11:20:25;;;;;;;;;;;;;;;8.61;50.67;99456.69;4992326;28;19922;-73
2023/11/19 11:23:04;;;;;;;;;;;;;;;8.85;50.55;99457.09;4988328;28;19924;-74
2023/11/19 11:25:43;;;;;;;;;;;;;;;8.54;50.75;99441.25;4988040;28;19918;-75
2023/11/19 11:28:41;;;;;;;;;;;;;;;8.71;50.49;99439.69;4986752;28;20380;-73
2023/11/19 11:31:25;;;;;;;;;;;;;;;8.76;50.57;99442.31;4977824;28;19948;-73
2023/11/19 11:33:56;;;;;;;;;;;;;;;8.74;50.10;99427.88;4986571;28;19977;-75
2023/11/19 11:36:22;;;;;;;;;;;;;;;8.55;50.36;99419.78;4992080;28;19975;-74
2023/11/19 11:38:48;;;;;;;;;;;;;;;8.81;51.74;99425.44;4986349;28;19922;-73
2023/11/19 11:41:20;;;;;;;;;;;;;;;8.92;49.99;99423.16;4989239;28;19961;-74
2023/11/19 11:43:46;;;;;;;;;;;;;;;8.60;50.64;99405.69;4980787;28;19928;-73
2023/11/19 11:46:30;;;;;;;;;;;;;;;8.63;50.32;99398.63;4990896;28;20340;-75
2023/11/19 11:48:57;;;;;;;;;;;;;;;8.53;50.58;99394.19;4990482;28;19962;-75
2023/11/19 11:51:42;;;;;;;;;;;;;;;8.70;51.03;99390.63;4991714;28;20395;-74
2023/11/19 11:54:08;;;;;;;;;;;;;;;8.93;50.58;99380.16;4989593;28;19979;-73
2023/11/19 11:56:34;;;;;;;;;;;;;;;8.88;50.97;99396.22;4989254;28;20392;-71
2023/11/19 11:58:59;;;;;;;;;;;;;;;8.85;49.95;99395.75;4992763;28;19925;-74
2023/11/19 12:01:28;;;;;;;;;;;;;;;8.68;50.04;99395.69;4988711;28;20012;-73
2023/11/19 12:03:55;;;;;;;;;;;;;;;8.77;50.17;99385.38;4991510;28;19922;-74
2023/11/19 12:06:21;;;;;;;;;;;;;;;8.70;50.76;99382.25;4992458;28;19924;-73
2023/11/19 12:08:46;;;;;;;;;;;;;;;8.71;51.03;99395.88;4990810;28;20012;-73
2023/11/19 12:11:12;;;;;;;;;;;;;;;8.49;51.38;99396.75;4975675;28;19914;-72
2023/11/19 12:14:07;;;;;;;;;;;;;;;8.61;51.68;99395.34;4991808;28;19972;-72
2023/11/19 12:16:37;;;;;;;;;;;;;;;8.74;50.82;99388.81;4982541;28;19949;-73
2023/11/19 12:19:05;;;;;;;;;;;;;;;8.76;50.10;99380.94;4989308;28;19918;-72
2023/11/19 12:21:31;;;;;;;;;;;;;;;8.88;50.74;99377.53;4991081;28;19917;-74
2023/11/19 12:24:00;;;;;;;;;;;;;;;8.56;50.63;99372.03;4986887;28;19918;-71
2023/11/19 12:26:32;;;;;;;;;;;;;;;8.57;50.06;99373.72;4981352;28;20055;-72
2023/11/19 12:28:58;;;;;;;;;;;;;;;8.69;50.38;99378.66;4987817;28;20166;-71
2023/11/19 12:31:24;;;;;;;;;;;;;;;8.77;50.83;99371.44;4986863;28;19921;-71
2023/11/19 12:33:50;;;;;;;;;;;;;;;8.55;51.25;99370.41;4986166;28;19922;-73
2023/11/19 12:36:16;;;;;;;;;;;;;;;8.68;51.31;99379.78;4986147;28;20290;-71
2023/11/19 12:38:41;;;;;;;;;;;;;;;8.50;51.76;99387.28;4984090;28;19925;-71
2023/11/19 12:41:08;;;;;;;;;;;;;;;8.59;51.56;99380.94;4983938;28;19925;-72
2023/11/19 12:43:37;;;;;;;;;;;;;;;8.56;51.24;99371.22;4984135;28;19929;-72
2023/11/19 12:46:03;;;;;;;;;;;;;;;8.61;50.97;99357.13;4987012;28;19932;-72
2023/11/19 12:48:28;;;;;;;;;;;;;;;8.74;50.98;99357.31;4986502;28;19928;-73
2023/11/19 12:50:54;;;;;;;;;;;;;;;8.79;50.90;99360.78;4987249;28;19925;-72
2023/11/19 12:53:23;;;;;;;;;;;;;;;8.75;51.01;99343.06;4986506;28;20608;-72